MUHA

Details ICAO MUHA (HAV)
Name Havana Jose Marti Intl
Region Cuba
Timezone America/Havana (UTC-4.0)
Plans Departing 717
Arriving 1007
Stats Elevation 209 ft / 64 m (AMSL)
Location 22.989154° -82.409086°
Runways 1
Magnetic Variation 4.968° W
Sunrise 2018-06-19 10:45:53 UTC / 2018-06-19 06:45:53 Local
Sunset 2018-06-20 00:18:40 UTC / 2018-06-19 20:18:40 Local
Advertisement - Login to hide

Runways

ID Width Length Bearing (true) Bearing (mag) Surface Threshold Offset Overrun Length
06 148 ft / 45 m 13,133 ft / 4,003 m 54.21° 59.18° Asphalt 0 ft / 0 m 476 ft / 145 m
24 148 ft / 45 m 13,133 ft / 4,003 m 234.23° 239.20° Asphalt 0 ft / 0 m 197 ft / 60 m

Approach Navaids

Runway Type Ident Frequency Range Bearing (true) Bearing (mag) Slope Elevation
06 Localiser IHA 110.50 MHz 18 nm / 33 km 54.23° 59.20° - 209 ft / 64 m (AMSL)
06 Glidescope IHA 110.50 MHz 10 nm / 19 km 54.22° 59.19° 3.00° 209 ft / 64 m (AMSL)

Map

Weather


0- 5 10 15 20 25 30 35+ Temperature / ° C

Clouds and Precipitation
Forecast for 2018-06-19 12:00 UTC. Updated 3 hours ago

Ground ~20,000 ft ~40,000 ft Winds

METAR

MUHA 191155Z 06003KT 9000 FEW025TCU 25/24 Q1017

TAF

Not found

Frequencies

Recorded 132.50 MHz ATIS
Ground 121.90 MHz GND
Approach 119.35 MHz HABANA APP
Clearance 121.90 MHz CLNC DEL
Tower 118.10 MHz MARTI TWR
Warning: Do not use this data for real-world aviation or navigation. No guarantee of current accuracy is given.